Friday, November 17, 2017, 2:31 PM EST
Back to Local

KAQW, N Adams Harriman-and-west

Location: North Adams, MA, United States Lat: 42.7
Local Time: 2:31 PM EST (19:31 GMT) Lon: -73.167
Time Zone: US/Eastern Elev: 652 ft

Show me the last for .
Show Decoded

2017-11-17 13:52 METAR KAQW 171852Z AUTO 28012G20KT 10SM CLR 04/M07 A2998 RMK AO2 SLP159
                 T00391072 =
2017-11-17 12:52 METAR KAQW 171752Z AUTO 29009G23KT 10SM FEW040 03/M07 A2997 RMK AO2 SLP156
                 T00331067 10033 20006 58014 =
2017-11-17 11:52 METAR KAQW 171652Z AUTO 28015G22KT 10SM BKN036 02/M06 A2998 RMK AO2 SLP159
                 T00221056 =
2017-11-17 10:52 METAR KAQW 171552Z AUTO 29010G17KT 10SM OVC033 02/M06 A3001 RMK AO2 SLP167
                 T00171056 =
2017-11-17 10:06 METAR KAQW 171506Z AUTO 28014G25KT 10SM OVC030 01/M06 A3002 RMK AO2 T00061061 =
2017-11-17 09:52 METAR KAQW 171452Z AUTO 29012G22KT 10SM OVC029 01/M06 A3001 RMK AO2 PK WND
                 27029/1354 SLP170 T00061056 51012 =
2017-11-17 09:48 METAR KAQW 171448Z AUTO 29011G21KT 10SM OVC029 01/M06 A3001 RMK AO2 PK WND
                 27029/1354 =
2017-11-17 08:52 METAR KAQW 171352Z AUTO 27022G30KT 10SM OVC032 01/M05 A2999 RMK AO2 PK WND
                 27030/1348 SLP163 T00061050 =
2017-11-17 07:52 METAR KAQW 171252Z AUTO 27014G24KT 10SM OVC030 01/M05 A2998 RMK AO2 SLP158
                 T00061050 =
2017-11-17 06:52 METAR KAQW 171152Z AUTO 28014G25KT 260V340 10SM OVC031 01/M05 A2995 RMK AO2 PK
                 WND 27031/1122 SLP146 70017 T00061050 10039 20006 53029 =
2017-11-17 05:52 METAR KAQW 171052Z AUTO 28017G27KT 10SM OVC032 01/M04 A2991 RMK AO2 PK WND
                 27027/1052 SLP135 T00111044 =
2017-11-17 04:52 METAR KAQW 170952Z AUTO 28011G23KT 10SM BKN032 OVC039 02/M04 A2988 RMK AO2 PK
                 WND 28028/0926 SLP123 T00171039 =
2017-11-17 04:24 METAR KAQW 170924Z AUTO 27014G24KT 10SM OVC032 02/M04 A2987 RMK AO2 T00171039 =
2017-11-17 04:12 METAR KAQW 170912Z AUTO 27013G22KT 10SM BKN029 OVC035 02/M03 A2987 RMK AO2
                 T00171033 =
2017-11-17 03:52 METAR KAQW 170852Z AUTO 27017G22KT 10SM BKN030 OVC035 02/M03 A2986 RMK AO2
                 SLP116 T00221033 51018 =
2017-11-17 03:09 METAR KAQW 170809Z AUTO 27013G20KT 10SM OVC032 02/M03 A2985 RMK AO2 T00221028 =
2017-11-17 02:52 METAR KAQW 170752Z AUTO 27012G18KT 10SM BKN029 OVC040 03/M03 A2984 RMK AO2
                 SLP111 T00281028 =
2017-11-17 02:34 METAR KAQW 170734Z AUTO 28018G25KT 10SM SCT029 OVC040 03/M03 A2984 RMK AO2
                 T00281028 =
2017-11-17 01:52 METAR KAQW 170652Z AUTO 28010G19KT 10SM BKN029 OVC040 03/M02 A2983 RMK AO2
                 SLP104 T00331022 =
2017-11-17 01:37 METAR KAQW 170637Z AUTO 27013G20KT 10SM BKN028 OVC037 03/M02 A2982 RMK AO2
                 T00331017 =
2017-11-17 00:52 METAR KAQW 170552Z AUTO 27010G19KT 10SM SCT028 BKN037 OVC049 04/M02 A2980 RMK
                 AO2 SLP097 60000 T00391017 10061 20039 50008 =
2017-11-17 00:48 METAR KAQW 170548Z AUTO 28013G19KT 10SM SCT028 BKN037 OVC049 04/M02 A2980 RMK
                 AO2 =
2017-11-17 00:34 METAR KAQW 170534Z AUTO 27010G19KT 10SM BKN029 BKN038 OVC049 04/M02 A2980 RMK
                 AO2 T00391017 =
2017-11-16 23:52 METAR KAQW 170452Z AUTO 26013G17KT 10SM SCT030 BKN039 OVC050 04/M01 A2980 RMK
                 AO2 PK WND 24026/0400 SLP095 T00391011 400940039 =
2017-11-16 22:52 METAR KAQW 170352Z AUTO 26016G25KT 10SM FEW049 OVC060 04/M01 A2978 RMK AO2 PK
                 WND 25031/0341 SLP089 T00441006 =
2017-11-16 21:52 METAR KAQW 170252Z AUTO 27016G24KT 10SM SCT027 SCT036 OVC060 04/M01 A2977 RMK
                 AO2 PK WND 25028/0202 RAB30E40 SLP086 P0000 60000 T00441006 53009 =
2017-11-16 21:11 METAR KAQW 170211Z AUTO 27015G28KT 10SM SCT027 BKN037 OVC060 05/01 A2977 RMK AO2
                 PK WND 25028/0202 T00500006 =
2017-11-16 20:52 METAR KAQW 170152Z AUTO 27012G22KT 240V300 10SM BKN027 BKN033 OVC042 05/01 A2976
                 RMK AO2 RAB44E49 SLP083 P0000 T00500006 =
2017-11-16 20:32 METAR KAQW 170132Z AUTO 27014G21KT 10SM BKN029 OVC035 06/01 A2976 RMK AO2
                 T00560006 =
2017-11-16 20:17 METAR KAQW 170117Z AUTO 27013G21KT 10SM BKN030 OVC037 06/01 A2976 RMK AO2
                 T00610011 =
2017-11-16 19:52 METAR KAQW 170052Z AUTO 28010KT 10SM BKN029 BKN041 06/02 A2975 RMK AO2 SLP077
                 T00560017 =
2017-11-16 19:47 METAR KAQW 170047Z AUTO 27011KT 10SM BKN029 BKN044 06/02 A2975 RMK AO2 =
2017-11-16 18:52 METAR KAQW 162352Z AUTO 26013KT 10SM OVC050 06/02 A2974 RMK AO2 SLP076 60007
                 T00610017 10094 20050 51013 =
2017-11-16 17:52 METAR KAQW 162252Z AUTO 27006KT 10SM OVC060 05/03 A2974 RMK AO2 SLP077 T00500028
                 =
2017-11-16 17:08 METAR KAQW 162208Z AUTO 26008KT 10SM SCT026 BKN032 OVC060 06/03 A2973 RMK AO2
                 T00560033 =
2017-11-16 16:59 METAR KAQW 162159Z AUTO 25007KT 10SM BKN027 BKN032 OVC050 06/04 A2972 RMK AO2
                 T00560039 =
2017-11-16 16:52 METAR KAQW 162152Z AUTO 25007KT 10SM SCT025 BKN030 OVC047 06/04 A2972 RMK AO2
                 RAB22E46 TSB35E50 SLP069 P0004 T00560039 =
2017-11-16 16:41 METAR KAQW 162141Z AUTO 25007KT 7SM -TSRA SCT024 BKN033 OVC090 06/04 A2972 RMK
                 AO2 RAB22 TSB35 P0004 T00560039 =
2017-11-16 15:52 METAR KAQW 162052Z AUTO 00000KT 10SM FEW045 BKN060 OVC100 06/04 A2970 RMK AO2
                 SLP062 60003 T00610044 55006 =
2017-11-16 14:52 METAR KAQW 161952Z AUTO 23004KT 10SM SCT070 BKN100 06/04 A2970 RMK AO2
                 RAB1857E26 SLP061 P0003 T00610044 =

Support USWX by starting your Amazon purchase here.